Time;durP1;ratioP1;P1;durP2;ratioP2;P2;SDS_P1;SDS_P2;PMS_P1;PMS_P2;Temp;Humidity;BMP_temperature;BMP_pressure;BME280_temperature;BME280_humidity;BME280_pressure;Samples;Min_cycle;Max_cycle;Signal;HPM_P1;HPM_P2
2023/11/25 00:00:22;;;;;;;2.00;0.50;;;2.60;99.90;;;;;;5031133;28;20045;-50
2023/11/25 00:02:49;;;;;;;3.13;0.60;;;2.50;99.90;;;;;;5033465;28;20061;-49
2023/11/25 00:05:15;;;;;;;5.10;0.53;;;2.60;99.90;;;;;;5033598;28;20105;-51
2023/11/25 00:07:40;;;;;;;3.70;0.60;;;2.50;99.90;;;;;;5033663;28;20065;-49
2023/11/25 00:10:07;;;;;;;1.70;0.50;;;2.60;99.90;;;;;;5032925;28;20097;-52
2023/11/25 00:12:34;;;;;;;3.17;0.50;;;2.60;99.90;;;;;;5033126;28;20128;-49
2023/11/25 00:14:59;;;;;;;3.30;0.70;;;2.60;99.90;;;;;;5032194;28;20029;-50
2023/11/25 00:17:28;;;;;;;0.73;0.47;;;2.60;99.90;;;;;;5033097;28;20505;-53
2023/11/25 00:19:56;;;;;;;2.83;0.47;;;2.50;99.90;;;;;;5032540;28;20037;-50
2023/11/25 00:22:21;;;;;;;5.40;1.17;;;2.50;99.90;;;;;;5033030;28;20041;-53
2023/11/25 00:24:50;;;;;;;2.03;0.50;;;2.50;99.90;;;;;;5032438;28;20164;-53
2023/11/25 00:27:17;;;;;;;2.55;0.57;;;2.50;99.90;;;;;;5032825;28;20386;-53
2023/11/25 00:29:43;;;;;;;2.53;0.73;;;2.50;99.90;;;;;;5030855;28;20044;-52
2023/11/25 00:32:08;;;;;;;4.10;0.67;;;2.50;99.90;;;;;;5032741;28;20025;-53
2023/11/25 00:34:34;;;;;;;1.80;0.80;;;2.50;99.90;;;;;;5032563;28;20029;-51
2023/11/25 00:37:00;;;;;;;2.53;0.57;;;2.50;99.90;;;;;;5031251;28;20188;-53
2023/11/25 00:39:27;;;;;;;2.97;0.70;;;2.60;99.90;;;;;;5030671;28;20033;-53
2023/11/25 00:41:53;;;;;;;2.47;0.70;;;2.60;99.90;;;;;;5032555;28;20045;-51
2023/11/25 00:44:19;;;;;;;2.80;1.00;;;2.60;99.90;;;;;;5030954;28;20034;-51
2023/11/25 00:46:45;;;;;;;3.47;0.90;;;2.70;99.90;;;;;;5030999;28;20145;-50
2023/11/25 00:49:13;;;;;;;3.77;0.90;;;2.80;99.90;;;;;;5031850;28;20036;-54
2023/11/25 00:51:39;;;;;;;2.67;0.80;;;2.80;99.90;;;;;;5032212;28;20112;-53
2023/11/25 00:54:05;;;;;;;6.43;0.90;;;2.80;99.90;;;;;;5032197;28;20048;-53
2023/11/25 00:56:31;;;;;;;6.07;0.97;;;2.90;99.90;;;;;;5032016;28;20033;-53
2023/11/25 00:58:57;;;;;;;6.37;1.17;;;2.90;99.90;;;;;;5030103;28;20076;-52
2023/11/25 01:01:23;;;;;;;5.03;0.80;;;2.90;99.90;;;;;;5030800;28;20061;-52
2023/11/25 01:03:48;;;;;;;9.07;1.60;;;2.90;99.90;;;;;;5030653;28;20033;-51
2023/11/25 01:06:14;;;;;;;3.53;0.73;;;2.80;99.90;;;;;;5032169;28;20029;-49
2023/11/25 01:08:40;;;;;;;2.83;1.20;;;2.80;99.90;;;;;;5030501;28;20486;-53
2023/11/25 01:11:06;;;;;;;4.10;0.67;;;2.70;99.90;;;;;;5030263;28;20433;-51
2023/11/25 01:13:32;;;;;;;2.17;0.77;;;2.70;99.90;;;;;;5031862;28;20029;-54
2023/11/25 01:16:00;;;;;;;4.20;1.10;;;2.60;99.90;;;;;;5030420;28;20508;-54
2023/11/25 01:18:26;;;;;;;5.53;0.80;;;2.60;99.90;;;;;;5030138;28;20033;-53
2023/11/25 01:20:55;;;;;;;2.67;1.10;;;2.60;99.90;;;;;;5030129;28;20117;-53
2023/11/25 01:23:22;;;;;;;2.78;0.82;;;2.50;99.90;;;;;;5030205;28;20083;-54
2023/11/25 01:25:48;;;;;;;5.97;0.90;;;2.40;99.90;;;;;;5031326;28;20399;-52
2023/11/25 01:28:14;;;;;;;6.13;1.10;;;2.40;99.90;;;;;;5030173;28;20055;-54
2023/11/25 01:30:39;;;;;;;5.97;1.30;;;2.40;99.90;;;;;;5031578;28;20037;-54
2023/11/25 01:33:09;;;;;;;5.43;1.17;;;2.40;99.90;;;;;;5031778;28;20637;-51
2023/11/25 01:35:35;;;;;;;3.37;0.67;;;2.30;99.90;;;;;;5030189;28;20044;-51
2023/11/25 01:38:01;;;;;;;5.70;1.13;;;2.40;99.90;;;;;;5031381;28;20026;-51
2023/11/25 01:40:26;;;;;;;6.87;0.93;;;2.30;99.90;;;;;;5029507;28;20038;-52
2023/11/25 01:43:01;;;;;;;5.67;0.80;;;2.30;99.90;;;;;;5030023;28;20035;-51
2023/11/25 01:45:27;;;;;;;6.73;1.87;;;2.30;99.90;;;;;;5031526;28;20108;-51
2023/11/25 01:47:54;;;;;;;3.30;1.00;;;2.30;99.90;;;;;;5030045;28;20542;-51
2023/11/25 01:50:21;;;;;;;3.30;0.70;;;2.30;99.90;;;;;;5031272;28;20083;-53
2023/11/25 01:52:49;;;;;;;4.57;1.17;;;2.40;99.90;;;;;;5030009;28;20542;-53
2023/11/25 01:55:17;;;;;;;7.03;1.33;;;2.40;99.90;;;;;;5031365;28;20116;-52
2023/11/25 01:57:43;;;;;;;10.20;2.00;;;2.40;99.90;;;;;;5030023;28;20033;-53
2023/11/25 02:00:13;;;;;;;6.63;1.40;;;2.40;99.90;;;;;;5029449;28;20033;-51
2023/11/25 02:02:41;;;;;;;5.77;0.70;;;2.40;99.90;;;;;;5029959;28;20699;-52
2023/11/25 02:05:07;;;;;;;10.10;1.07;;;2.40;99.90;;;;;;5029877;28;20029;-54
2023/11/25 02:07:34;;;;;;;3.13;1.53;;;2.30;99.90;;;;;;5029679;28;20081;-50
2023/11/25 02:10:00;;;;;;;3.33;0.93;;;2.30;99.90;;;;;;5029755;28;20041;-54
2023/11/25 02:12:26;;;;;;;2.67;0.90;;;2.20;99.90;;;;;;5029979;28;20116;-54
2023/11/25 02:14:51;;;;;;;6.67;1.50;;;2.20;99.90;;;;;;5031938;28;20025;-51
2023/11/25 02:17:17;;;;;;;5.27;1.13;;;2.20;99.90;;;;;;5030528;28;20501;-54
2023/11/25 02:19:43;;;;;;;4.07;0.77;;;2.20;99.90;;;;;;5029535;28;20124;-51
2023/11/25 02:22:10;;;;;;;4.20;1.27;;;2.10;99.90;;;;;;5030179;28;20443;-54
2023/11/25 02:24:37;;;;;;;6.20;1.87;;;2.10;99.90;;;;;;5030163;28;20052;-54
2023/11/25 02:27:04;;;;;;;7.20;1.37;;;2.10;99.90;;;;;;5031425;28;20041;-53
2023/11/25 02:29:32;;;;;;;8.30;1.00;;;2.10;99.90;;;;;;5029558;28;20087;-53
2023/11/25 02:31:59;;;;;;;7.23;1.10;;;2.00;99.90;;;;;;5031151;28;20360;-53
2023/11/25 02:34:25;;;;;;;2.53;0.83;;;2.00;99.90;;;;;;5031350;28;20037;-52
2023/11/25 02:36:51;;;;;;;2.53;1.10;;;2.00;99.90;;;;;;5031288;28;20431;-54
2023/11/25 02:39:20;;;;;;;2.57;0.90;;;2.00;99.90;;;;;;5032187;28;20123;-51
2023/11/25 02:41:50;;;;;;;4.87;1.20;;;2.00;99.90;;;;;;5035250;28;20033;-53
2023/11/25 02:44:16;;;;;;;6.07;0.87;;;2.00;99.90;;;;;;5033577;28;20926;-52
2023/11/25 02:46:44;;;;;;;4.33;0.80;;;2.00;99.90;;;;;;5033400;28;20029;-50
2023/11/25 02:49:10;;;;;;;2.23;0.73;;;1.90;99.90;;;;;;5032751;28;20021;-55
2023/11/25 02:51:36;;;;;;;3.27;1.10;;;1.90;99.90;;;;;;5034838;28;20053;-52
2023/11/25 02:54:02;;;;;;;4.93;0.80;;;1.90;99.90;;;;;;5033298;28;20442;-52
2023/11/25 02:56:27;;;;;;;5.00;1.10;;;1.80;99.90;;;;;;5034691;28;20033;-54
2023/11/25 02:58:53;;;;;;;4.13;0.70;;;1.90;99.90;;;;;;5034192;28;20029;-53
2023/11/25 03:01:19;;;;;;;5.53;0.97;;;1.90;99.90;;;;;;5034239;28;20033;-53
2023/11/25 03:03:48;;;;;;;6.03;1.03;;;2.00;99.90;;;;;;5032990;28;20561;-53
2023/11/25 03:06:16;;;;;;;6.13;0.82;;;1.90;99.90;;;;;;5034369;28;20448;-51
2023/11/25 03:08:41;;;;;;;5.87;1.10;;;2.00;99.90;;;;;;5032559;28;20125;-50
2023/11/25 03:11:15;;;;;;;8.00;1.10;;;2.00;99.90;;;;;;5032737;28;20605;-54
2023/11/25 03:13:41;;;;;;;3.27;0.90;;;2.10;99.90;;;;;;5033069;28;20040;-50
2023/11/25 03:16:08;;;;;;;6.47;1.10;;;2.10;99.90;;;;;;5034323;28;20052;-53
2023/11/25 03:18:33;;;;;;;5.43;0.87;;;2.10;99.90;;;;;;5033792;28;20032;-50
2023/11/25 03:20:59;;;;;;;5.70;0.90;;;2.10;99.90;;;;;;5033811;28;20034;-50
2023/11/25 03:23:24;;;;;;;5.40;0.90;;;2.20;99.90;;;;;;5032528;28;20029;-50
2023/11/25 03:25:50;;;;;;;2.77;0.93;;;2.20;99.90;;;;;;5034030;28;20083;-51
2023/11/25 03:28:16;;;;;;;6.73;1.20;;;2.20;99.90;;;;;;5032439;28;20374;-53
2023/11/25 03:30:41;;;;;;;5.23;0.80;;;2.20;99.90;;;;;;5032373;28;20025;-53
2023/11/25 03:33:07;;;;;;;3.60;0.60;;;2.20;99.90;;;;;;5033928;28;20123;-54
2023/11/25 03:35:33;;;;;;;6.87;0.80;;;2.20;99.90;;;;;;5033848;28;20034;-54
2023/11/25 03:37:59;;;;;;;4.87;1.10;;;2.30;99.90;;;;;;5033835;28;20099;-54
2023/11/25 03:40:24;;;;;;;7.87;1.00;;;2.30;99.90;;;;;;5033294;28;20026;-54
2023/11/25 03:42:50;;;;;;;8.13;1.67;;;2.30;99.90;;;;;;5033510;28;20512;-53
2023/11/25 03:45:15;;;;;;;1.47;0.63;;;2.30;99.90;;;;;;5033663;28;20029;-54
2023/11/25 03:47:44;;;;;;;4.77;1.00;;;2.30;99.90;;;;;;5033543;28;20026;-50
2023/11/25 03:50:13;;;;;;;3.60;0.83;;;2.30;99.90;;;;;;5032872;28;20044;-54
2023/11/25 03:52:42;;;;;;;4.18;0.80;;;2.20;99.90;;;;;;5033697;28;20064;-54
2023/11/25 03:55:09;;;;;;;9.35;0.80;;;2.20;99.90;;;;;;5032069;28;20037;-54
2023/11/25 03:57:38;;;;;;;3.13;0.73;;;2.10;99.90;;;;;;5032133;28;20045;-54
2023/11/25 04:00:14;;;;;;;;;;;2.10;99.90;;;;;;5033332;28;20025;-52
2023/11/25 04:02:44;;;;;;;5.80;0.50;;;2.10;99.90;;;;;;5032655;28;20333;-54
2023/11/25 04:05:14;;;;;;;4.40;0.67;;;2.00;99.90;;;;;;5031364;28;20037;-54
2023/11/25 04:07:40;;;;;;;4.47;1.90;;;2.00;99.90;;;;;;5031644;28;20088;-53
2023/11/25 04:10:16;;;;;;;3.93;0.70;;;1.90;99.90;;;;;;5031277;28;20059;-53
2023/11/25 04:12:43;;;;;;;7.37;1.37;;;1.90;99.90;;;;;;5030907;28;20115;-53
2023/11/25 04:15:13;;;;;;;4.13;0.90;;;1.80;99.90;;;;;;5031878;28;20034;-54
2023/11/25 04:17:39;;;;;;;5.88;0.90;;;1.70;99.90;;;;;;5033162;28;20061;-54
2023/11/25 04:20:12;;;;;;;3.23;0.80;;;1.60;99.90;;;;;;5032694;28;20083;-54
2023/11/25 04:22:46;;;;;;;4.57;1.23;;;1.60;99.90;;;;;;5033037;28;20037;-53
2023/11/25 04:25:16;;;;;;;3.20;1.30;;;1.50;99.90;;;;;;5032595;28;20049;-54
2023/11/25 04:27:43;;;;;;;2.45;0.80;;;1.40;99.90;;;;;;5031436;28;20038;-53
2023/11/25 04:30:10;;;;;;;6.23;1.10;;;1.40;99.90;;;;;;5032474;28;20037;-52
2023/11/25 04:32:39;;;;;;;5.20;1.37;;;1.30;99.90;;;;;;5032946;28;20049;-54
2023/11/25 04:35:06;;;;;;;4.72;0.98;;;1.30;99.90;;;;;;5032752;28;20091;-51
2023/11/25 04:37:32;;;;;;;8.53;1.20;;;1.30;99.90;;;;;;5032606;28;20037;-51
2023/11/25 04:39:58;;;;;;;4.90;1.07;;;1.20;99.90;;;;;;5032465;28;20091;-54
2023/11/25 04:42:24;;;;;;;7.77;1.10;;;1.20;99.90;;;;;;5032808;28;20037;-50
2023/11/25 04:44:50;;;;;;;2.43;0.90;;;1.10;99.90;;;;;;5032864;28;20037;-52
2023/11/25 04:47:15;;;;;;;3.60;0.90;;;1.10;99.90;;;;;;5032777;28;20025;-51
2023/11/25 04:49:41;;;;;;;5.20;0.97;;;1.00;99.90;;;;;;5030834;28;20071;-50
2023/11/25 04:52:07;;;;;;;9.63;1.20;;;1.00;99.90;;;;;;5032725;28;20033;-50
2023/11/25 04:54:32;;;;;;;8.10;2.07;;;0.90;99.90;;;;;;5032800;28;20037;-50
2023/11/25 04:57:01;;;;;;;2.43;0.80;;;1.00;99.90;;;;;;5033875;28;20041;-53
2023/11/25 04:59:29;;;;;;;10.00;1.77;;;1.00;99.90;;;;;;5034488;28;20056;-53
2023/11/25 05:01:55;;;;;;;4.07;1.00;;;1.00;99.90;;;;;;5031911;28;20034;-54
2023/11/25 05:04:20;;;;;;;4.73;1.23;;;1.00;99.90;;;;;;5031062;28;20029;-52
2023/11/25 05:06:46;;;;;;;3.03;1.17;;;1.10;99.90;;;;;;5031039;28;20490;-51
2023/11/25 05:09:18;;;;;;;5.07;0.97;;;1.10;99.90;;;;;;5031929;28;20621;-50
2023/11/25 05:11:44;;;;;;;3.47;1.03;;;1.10;99.90;;;;;;5031021;28;20029;-53
2023/11/25 05:14:10;;;;;;;4.67;1.33;;;1.20;99.90;;;;;;5032111;28;20037;-51
2023/11/25 05:16:35;;;;;;;4.87;1.20;;;1.20;99.90;;;;;;5032481;28;20029;-52
2023/11/25 05:19:02;;;;;;;2.77;0.80;;;1.30;99.90;;;;;;5031539;28;20544;-50
2023/11/25 05:21:28;;;;;;;3.17;0.97;;;1.30;99.90;;;;;;5031971;28;20471;-52
2023/11/25 05:23:54;;;;;;;3.57;0.80;;;1.40;99.90;;;;;;5032112;28;20033;-52
2023/11/25 05:26:19;;;;;;;5.30;1.03;;;1.40;99.90;;;;;;5031844;28;20044;-54
2023/11/25 05:28:45;;;;;;;7.33;1.20;;;1.50;99.90;;;;;;5031627;28;20033;-53
2023/11/25 05:31:11;;;;;;;5.87;0.80;;;1.60;99.90;;;;;;5031616;28;20026;-54
2023/11/25 05:33:37;;;;;;;4.43;1.27;;;1.70;99.90;;;;;;5032022;28;20040;-53
2023/11/25 05:36:03;;;;;;;6.33;0.80;;;1.90;99.90;;;;;;5031632;28;20037;-53
2023/11/25 05:38:28;;;;;;;5.30;0.70;;;1.90;99.90;;;;;;5031591;28;20041;-53
2023/11/25 05:40:54;;;;;;;3.50;1.00;;;2.00;99.90;;;;;;5031451;28;20107;-52
2023/11/25 05:43:25;;;;;;;9.33;1.70;;;2.20;99.90;;;;;;5031599;28;20075;-52
2023/11/25 05:45:50;;;;;;;5.87;1.17;;;2.30;99.90;;;;;;5031530;28;20048;-51
2023/11/25 05:48:17;;;;;;;6.27;1.03;;;2.40;99.90;;;;;;5031889;28;20512;-54
2023/11/25 05:50:44;;;;;;;7.73;1.17;;;2.40;99.90;;;;;;5031134;28;20030;-53
2023/11/25 05:53:10;;;;;;;12.43;1.30;;;2.50;99.90;;;;;;5031825;28;20057;-50
2023/11/25 05:55:36;;;;;;;5.90;1.10;;;2.50;99.90;;;;;;5031912;28;20112;-54
2023/11/25 05:58:01;;;;;;;7.77;1.27;;;2.60;99.90;;;;;;5031794;28;20072;-53
2023/11/25 06:00:29;;;;;;;7.70;1.30;;;2.70;99.90;;;;;;5031092;28;20124;-50
2023/11/25 06:02:55;;;;;;;6.90;1.37;;;2.60;99.90;;;;;;5031326;28;20025;-51
2023/11/25 06:05:21;;;;;;;5.23;0.70;;;2.70;99.90;;;;;;5031475;28;20104;-53
2023/11/25 06:07:47;;;;;;;7.33;1.00;;;2.80;99.90;;;;;;5031493;28;20037;-53
2023/11/25 06:10:12;;;;;;;5.90;1.87;;;2.90;99.90;;;;;;5030928;28;20064;-54
2023/11/25 06:12:38;;;;;;;5.37;1.43;;;3.00;99.90;;;;;;5033177;28;20098;-54
2023/11/25 06:15:05;;;;;;;8.00;1.30;;;3.00;99.90;;;;;;5035459;28;20025;-51
2023/11/25 06:17:32;;;;;;;6.67;1.10;;;3.10;99.90;;;;;;5035252;28;20071;-51
2023/11/25 06:19:58;;;;;;;4.93;0.90;;;3.10;99.90;;;;;;5035058;28;20033;-54
2023/11/25 06:22:23;;;;;;;10.03;1.23;;;3.20;99.90;;;;;;5035312;28;20030;-54
2023/11/25 06:24:49;;;;;;;8.33;1.10;;;3.20;99.90;;;;;;5035048;28;20032;-53
2023/11/25 06:27:16;;;;;;;4.40;1.30;;;3.20;99.90;;;;;;5033762;28;20033;-55
2023/11/25 06:29:43;;;;;;;6.60;1.07;;;3.30;99.90;;;;;;5034651;28;20045;-55
2023/11/25 06:32:09;;;;;;;4.97;1.20;;;3.40;99.90;;;;;;5034862;28;20116;-54
2023/11/25 06:34:34;;;;;;;8.03;1.67;;;3.40;99.90;;;;;;5034798;28;20479;-54
2023/11/25 06:37:00;;;;;;;3.43;0.83;;;3.50;99.90;;;;;;5034930;28;20069;-53
2023/11/25 06:39:31;;;;;;;6.33;1.47;;;3.50;99.90;;;;;;5034322;28;20040;-54
2023/11/25 06:41:58;;;;;;;9.13;1.67;;;3.50;99.90;;;;;;5034076;28;20033;-54
2023/11/25 06:44:24;;;;;;;5.80;1.33;;;3.50;99.90;;;;;;5034105;28;20052;-54
2023/11/25 06:46:50;;;;;;;5.60;1.30;;;3.60;99.90;;;;;;5034497;28;20494;-54
2023/11/25 06:49:15;;;;;;;6.80;1.43;;;3.50;99.90;;;;;;5034112;28;20471;-54
2023/11/25 06:51:42;;;;;;;7.03;0.93;;;3.50;99.90;;;;;;5034499;28;20033;-53
2023/11/25 06:54:08;;;;;;;6.30;0.73;;;3.50;99.90;;;;;;5034757;28;20112;-54
2023/11/25 06:56:35;;;;;;;10.63;1.57;;;3.50;99.90;;;;;;5034665;28;20033;-53
2023/11/25 06:59:01;;;;;;;8.90;1.63;;;3.50;99.90;;;;;;5034822;28;20037;-53
2023/11/25 07:01:27;;;;;;;5.07;0.93;;;3.40;99.90;;;;;;5034338;28;20401;-51
2023/11/25 07:03:53;;;;;;;7.40;1.23;;;3.30;99.90;;;;;;5034544;28;20033;-52
2023/11/25 07:06:18;;;;;;;5.27;1.10;;;3.30;99.90;;;;;;5021041;28;20033;-51
2023/11/25 07:08:45;;;;;;;4.53;1.10;;;3.20;99.90;;;;;;5014271;28;20085;-51
2023/11/25 07:11:13;;;;;;;3.13;1.17;;;3.20;99.90;;;;;;5031882;28;20048;-51
2023/11/25 07:13:39;;;;;;;8.57;1.27;;;3.10;99.90;;;;;;5034013;28;20037;-54
2023/11/25 07:16:06;;;;;;;6.67;1.57;;;3.10;99.90;;;;;;5031646;28;20405;-53
2023/11/25 07:18:33;;;;;;;6.00;1.00;;;3.10;99.90;;;;;;5032507;28;20029;-50
2023/11/25 07:20:59;;;;;;;4.70;1.10;;;3.10;99.90;;;;;;5033209;28;20033;-52
2023/11/25 07:23:25;;;;;;;3.60;1.23;;;3.10;99.90;;;;;;5033647;28;20113;-54
2023/11/25 07:25:51;;;;;;;10.43;2.17;;;3.10;99.90;;;;;;5033967;28;20425;-54
2023/11/25 07:28:17;;;;;;;8.77;1.27;;;3.10;99.90;;;;;;5032613;28;20030;-52
2023/11/25 07:30:43;;;;;;;7.37;1.23;;;3.10;99.90;;;;;;5033881;28;20048;-54
2023/11/25 07:33:09;;;;;;;8.47;1.90;;;3.10;99.90;;;;;;5034197;28;20501;-51
2023/11/25 07:35:36;;;;;;;6.33;1.20;;;3.10;99.90;;;;;;5034064;28;20486;-54
2023/11/25 07:38:03;;;;;;;12.83;1.20;;;3.10;99.90;;;;;;5034354;28;20401;-54
2023/11/25 07:40:28;;;;;;;6.17;1.10;;;3.10;99.90;;;;;;5033234;28;20048;-55
2023/11/25 07:42:54;;;;;;;6.47;1.10;;;3.10;99.90;;;;;;5034150;28;20022;-53
2023/11/25 07:45:20;;;;;;;7.43;1.20;;;3.20;99.90;;;;;;5033824;28;20393;-54
2023/11/25 07:47:45;;;;;;;12.20;3.60;;;3.20;99.90;;;;;;5033837;28;20037;-50
2023/11/25 07:50:11;;;;;;;4.70;1.23;;;3.30;99.90;;;;;;5033672;28;20117;-54
2023/11/25 07:52:38;;;;;;;5.73;1.23;;;3.30;99.90;;;;;;5033879;28;20025;-55
2023/11/25 07:55:04;;;;;;;8.03;1.47;;;3.40;99.90;;;;;;5033792;28;20053;-54
2023/11/25 07:57:33;;;;;;;13.40;1.83;;;3.40;99.90;;;;;;5033635;28;20072;-53
2023/11/25 07:59:59;;;;;;;7.18;1.35;;;3.40;99.90;;;;;;5033019;28;20033;-53
2023/11/25 08:02:24;;;;;;;8.33;1.43;;;3.40;99.90;;;;;;5033559;28;20072;-54
2023/11/25 08:04:51;;;;;;;4.00;1.07;;;3.40;99.90;;;;;;5033322;28;20115;-55
2023/11/25 08:07:17;;;;;;;5.53;1.47;;;3.40;99.90;;;;;;5030691;28;20033;-51
2023/11/25 08:09:43;;;;;;;5.43;1.30;;;3.50;99.90;;;;;;5032688;28;20072;-51
2023/11/25 08:12:09;;;;;;;4.97;1.10;;;3.50;99.90;;;;;;5033139;28;20037;-51
2023/11/25 08:14:35;;;;;;;5.17;1.10;;;3.50;99.90;;;;;;5033314;28;20041;-50
2023/11/25 08:17:02;;;;;;;1.70;0.70;;;3.60;99.90;;;;;;5033156;28;20116;-51
2023/11/25 08:19:27;;;;;;;10.63;1.87;;;3.70;99.90;;;;;;5032663;28;20533;-53
2023/11/25 08:21:53;;;;;;;7.53;2.63;;;3.70;99.90;;;;;;5033195;28;20185;-54
2023/11/25 08:24:18;;;;;;;7.53;1.80;;;3.80;99.90;;;;;;5032887;28;20112;-54
2023/11/25 08:26:45;;;;;;;5.67;1.00;;;3.90;99.90;;;;;;5032657;28;20021;-54
2023/11/25 08:29:14;;;;;;;8.90;1.53;;;3.90;99.90;;;;;;5032560;28;20030;-54
2023/11/25 08:31:39;;;;;;;5.88;1.17;;;4.00;99.90;;;;;;5032671;28;20041;-54
2023/11/25 08:34:08;;;;;;;4.37;0.60;;;4.10;99.90;;;;;;5029953;28;20029;-50
2023/11/25 08:36:44;;;;;;;6.32;1.00;;;4.10;99.90;;;;;;5031465;28;20029;-52
2023/11/25 08:39:15;;;;;;;3.73;0.80;;;4.20;99.90;;;;;;5032425;28;20060;-54
2023/11/25 08:41:44;;;;;;;0.87;0.60;;;4.30;99.90;;;;;;5032078;28;20417;-50
2023/11/25 08:44:12;;;;;;;5.13;0.88;;;4.40;99.90;;;;;;5032574;28;20041;-52
2023/11/25 08:46:39;;;;;;;8.03;1.20;;;4.30;99.90;;;;;;5032194;28;20037;-51
2023/11/25 08:49:07;;;;;;;4.60;1.60;;;4.40;99.90;;;;;;5032526;28;20486;-52
2023/11/25 08:51:33;;;;;;;8.20;1.73;;;4.40;99.90;;;;;;5032478;28;20041;-53
2023/11/25 08:53:58;;;;;;;6.50;1.50;;;4.50;99.90;;;;;;5032864;28;20362;-51
2023/11/25 08:56:25;;;;;;;13.57;2.33;;;4.50;99.90;;;;;;5032453;28;20367;-53
2023/11/25 08:58:51;;;;;;;13.53;2.50;;;4.50;99.90;;;;;;5030672;28;20043;-54
2023/11/25 09:01:17;;;;;;;9.57;2.70;;;4.40;99.90;;;;;;5031976;28;20038;-50
2023/11/25 09:03:42;;;;;;;9.93;1.67;;;4.40;99.90;;;;;;5031970;28;20030;-50
2023/11/25 09:06:08;;;;;;;7.37;1.70;;;4.50;99.90;;;;;;5032209;28;20037;-53
2023/11/25 09:08:35;;;;;;;6.70;1.47;;;4.40;99.90;;;;;;5031909;28;20033;-52
2023/11/25 09:11:01;;;;;;;6.77;1.80;;;4.40;99.90;;;;;;5031484;28;20038;-53
2023/11/25 09:13:27;;;;;;;8.27;1.43;;;4.40;99.90;;;;;;5031629;28;20387;-51
2023/11/25 09:15:52;;;;;;;3.10;0.67;;;4.60;99.90;;;;;;5030596;28;20474;-52
2023/11/25 09:18:18;;;;;;;4.90;1.33;;;4.90;99.90;;;;;;5030484;28;20025;-51
2023/11/25 09:20:45;;;;;;;3.80;1.10;;;5.10;99.90;;;;;;5031442;28;20040;-52
2023/11/25 09:23:11;;;;;;;5.47;1.03;;;5.40;99.90;;;;;;5031909;28;20040;-53
2023/11/25 09:25:37;;;;;;;6.10;0.90;;;5.50;99.90;;;;;;5031897;28;20029;-50
2023/11/25 09:28:03;;;;;;;7.07;1.30;;;5.50;99.90;;;;;;5032015;28;20109;-53
2023/11/25 09:30:29;;;;;;;8.93;1.20;;;5.50;99.90;;;;;;5031526;28;20045;-50
2023/11/25 09:32:55;;;;;;;7.23;1.10;;;5.90;99.90;;;;;;5031551;28;20032;-50
2023/11/25 09:35:22;;;;;;;2.20;0.83;;;6.80;99.90;;;;;;5031465;28;20489;-53
2023/11/25 09:37:48;;;;;;;2.07;0.40;;;7.80;99.90;;;;;;5031599;28;20025;-52
2023/11/25 09:40:14;;;;;;;4.33;1.23;;;8.00;99.90;;;;;;5031036;28;20041;-50
2023/11/25 09:42:44;;;;;;;2.63;0.63;;;8.20;99.90;;;;;;5030266;28;20389;-52
2023/11/25 09:45:14;;;;;;;3.77;1.07;;;8.50;99.90;;;;;;5031529;28;20060;-50
2023/11/25 09:47:45;;;;;;;2.13;0.83;;;9.50;99.90;;;;;;5031532;28;20052;-54
2023/11/25 09:50:12;;;;;;;2.92;0.68;;;10.70;99.90;;;;;;5031829;28;20436;-54
2023/11/25 09:52:50;;;;;;;5.47;1.00;;;12.10;99.90;;;;;;5031550;28;20104;-55
2023/11/25 09:55:18;;;;;;;4.43;0.98;;;12.90;99.90;;;;;;5031697;28;20036;-52
2023/11/25 09:57:49;;;;;;;4.75;0.80;;;12.80;99.90;;;;;;5031530;28;20029;-53
2023/11/25 10:00:21;;;;;;;1.80;0.65;;;12.50;99.90;;;;;;5031017;28;20465;-53
2023/11/25 10:02:54;;;;;;;3.35;0.70;;;12.60;99.90;;;;;;5031293;28;20060;-54
2023/11/25 10:05:20;;;;;;;5.25;1.08;;;13.40;99.90;;;;;;5031648;28;20044;-54
2023/11/25 10:07:45;;;;;;;4.65;0.90;;;14.50;99.90;;;;;;5031540;28;20029;-53
2023/11/25 10:10:11;;;;;;;2.72;0.88;;;15.00;99.90;;;;;;5031078;28;20038;-54
2023/11/25 10:12:42;;;;;;;2.63;1.00;;;15.10;99.90;;;;;;5031273;28;20551;-49
2023/11/25 10:15:10;;;;;;;6.53;1.10;;;14.20;99.90;;;;;;5029965;28;20029;-52
2023/11/25 10:17:37;;;;;;;4.40;1.10;;;13.20;99.90;;;;;;5030587;28;20068;-51
2023/11/25 10:20:18;;;;;;;6.80;1.40;;;12.30;99.90;;;;;;5030305;28;20128;-51
2023/11/25 10:22:57;;;;;;;6.95;1.27;;;11.60;99.90;;;;;;5030931;28;20041;-51
2023/11/25 10:25:25;;;;;;;;;;;10.60;99.90;;;;;;5031303;28;20068;-50
2023/11/25 10:27:52;;;;;;;8.13;1.48;;;9.80;99.90;;;;;;5030680;28;19905;-48
2023/11/25 10:30:17;;;;;;;4.80;1.10;;;9.20;99.90;;;;;;5030585;28;20099;-52
2023/11/25 10:32:44;;;;;;;6.20;1.17;;;8.60;99.90;;;;;;5030579;28;20088;-52
2023/11/25 10:35:10;;;;;;;5.13;1.43;;;8.20;99.90;;;;;;5030166;28;20071;-52
2023/11/25 10:37:40;;;;;;;5.50;1.20;;;7.90;99.90;;;;;;5029846;28;20108;-51
2023/11/25 10:40:09;;;;;;;6.60;1.10;;;7.60;99.90;;;;;;5030086;28;20033;-51
2023/11/25 10:42:39;;;;;;;7.37;1.53;;;7.30;99.90;;;;;;5030888;28;20373;-52
2023/11/25 10:45:14;;;;;;;10.63;1.83;;;7.30;99.90;;;;;;5031523;28;20117;-52
2023/11/25 10:47:40;;;;;;;10.97;3.00;;;7.20;99.90;;;;;;5031013;28;20033;-49
2023/11/25 10:50:06;;;;;;;12.23;2.93;;;7.20;99.90;;;;;;5028362;28;20076;-49
2023/11/25 10:52:36;;;;;;;7.63;2.43;;;7.10;99.90;;;;;;5026111;28;20065;-53
2023/11/25 10:55:03;;;;;;;9.65;2.15;;;7.20;99.90;;;;;;5027246;28;20026;-52
2023/11/25 10:57:31;;;;;;;10.67;2.93;;;7.20;99.90;;;;;;5027809;28;20033;-50
2023/11/25 10:59:58;;;;;;;8.07;1.40;;;7.20;99.90;;;;;;5025995;28;20109;-53
2023/11/25 11:02:36;;;;;;;6.63;1.27;;;7.30;99.90;;;;;;5030647;28;20056;-50
2023/11/25 11:05:17;;;;;;;4.13;1.10;;;7.20;99.90;;;;;;5031202;28;20033;-53
2023/11/25 11:07:54;;;;;;;7.43;0.73;;;7.20;99.90;;;;;;5030035;28;20040;-50
2023/11/25 11:10:34;;;;;;;5.60;1.03;;;7.20;99.90;;;;;;5029685;28;20033;-51
2023/11/25 11:13:02;;;;;;;;;;;7.00;99.90;;;;;;5029981;28;20055;-51
2023/11/25 11:15:30;;;;;;;5.30;0.70;;;7.00;99.90;;;;;;5030745;28;19987;-53
2023/11/25 11:18:16;;;;;;;7.17;1.40;;;6.90;99.90;;;;;;5031233;28;20033;-49
2023/11/25 11:20:51;;;;;;;2.10;0.70;;;6.90;99.90;;;;;;5030147;28;20034;-52
2023/11/25 11:23:19;;;;;;;6.07;1.50;;;6.90;99.90;;;;;;5028777;28;20025;-51
2023/11/25 11:26:27;;;;;;;7.23;1.03;;;6.90;99.90;;;;;;5030759;28;20108;-50
2023/11/25 11:29:06;;;;;;;3.73;0.67;;;6.90;99.90;;;;;;4961345;28;20666;-52
2023/11/25 11:31:58;;;;;;;3.47;0.80;;;7.10;99.90;;;;;;4960590;28;20034;-53
2023/11/25 11:34:28;;;;;;;11.43;1.33;;;7.10;99.90;;;;;;5008976;28;20042;-52
2023/11/25 11:36:55;;;;;;;7.13;1.00;;;7.00;99.90;;;;;;5030542;28;20041;-54
2023/11/25 11:39:38;;;;;;;4.83;1.57;;;6.80;99.90;;;;;;5030462;28;20022;-51
2023/11/25 11:42:22;;;;;;;5.40;1.30;;;6.60;99.90;;;;;;5030487;28;20462;-52
2023/11/25 11:45:09;;;;;;;2.80;0.80;;;6.50;99.90;;;;;;5030367;28;20466;-51
2023/11/25 11:47:35;;;;;;;3.13;0.80;;;6.70;99.90;;;;;;5030381;28;20049;-53
2023/11/25 11:50:01;;;;;;;4.17;1.00;;;7.20;99.90;;;;;;5028910;28;20072;-50
2023/11/25 11:52:26;;;;;;;4.30;0.70;;;7.30;99.90;;;;;;5030430;28;20034;-54
2023/11/25 11:54:52;;;;;;;2.50;0.77;;;7.40;99.90;;;;;;5028646;28;20120;-49
2023/11/25 11:57:18;;;;;;;3.23;0.60;;;7.40;99.90;;;;;;5028696;28;20834;-50
2023/11/25 11:59:59;;;;;;;6.53;0.60;;;7.40;99.90;;;;;;5029915;28;20478;-51
2023/11/25 12:02:28;;;;;;;4.03;0.83;;;7.30;99.90;;;;;;5031736;28;20489;-52
2023/11/25 12:04:55;;;;;;;3.30;1.00;;;7.30;99.90;;;;;;5030220;28;20030;-51
2023/11/25 12:07:24;;;;;;;4.97;1.03;;;7.20;99.90;;;;;;5029033;28;20030;-49
2023/11/25 12:09:50;;;;;;;4.87;0.90;;;7.20;99.90;;;;;;5028747;28;20026;-51
2023/11/25 12:12:16;;;;;;;6.40;1.10;;;7.30;99.90;;;;;;5029372;28;20037;-49
2023/11/25 12:14:41;;;;;;;5.23;1.00;;;7.30;99.90;;;;;;5029879;28;20033;-49
2023/11/25 12:17:08;;;;;;;4.67;0.60;;;7.40;99.90;;;;;;5028135;28;20045;-50
2023/11/25 12:19:34;;;;;;;3.47;0.87;;;7.90;99.90;;;;;;5028564;28;20041;-49
2023/11/25 12:22:00;;;;;;;4.67;1.40;;;8.70;99.90;;;;;;5028723;28;20075;-49
2023/11/25 12:24:25;;;;;;;5.13;1.00;;;8.80;99.90;;;;;;5029912;28;20033;-49
2023/11/25 12:26:56;;;;;;;4.87;1.17;;;8.70;99.90;;;;;;5029907;28;20032;-51
2023/11/25 12:29:23;;;;;;;7.10;1.00;;;8.30;99.90;;;;;;5029150;28;20367;-53
2023/11/25 12:31:49;;;;;;;8.33;1.20;;;8.00;99.90;;;;;;5024474;28;20040;-50
2023/11/25 12:34:17;;;;;;;4.43;1.53;;;7.90;99.90;;;;;;5030344;28;20474;-55
2023/11/25 12:36:43;;;;;;;4.55;0.77;;;7.80;99.90;;;;;;5029660;28;20039;-54
2023/11/25 12:39:12;;;;;;;4.53;1.23;;;7.80;99.90;;;;;;5028843;28;20120;-51
2023/11/25 12:41:41;;;;;;;5.03;1.05;;;7.70;99.90;;;;;;5029318;28;20125;-54
2023/11/25 12:44:11;;;;;;;3.22;0.75;;;7.40;99.90;;;;;;5029524;28;20031;-53
2023/11/25 12:46:41;;;;;;;6.07;1.17;;;7.20;99.90;;;;;;5027542;28;20021;-52
2023/11/25 12:49:24;;;;;;;5.80;1.10;;;7.10;99.90;;;;;;5028472;28;20029;-51
2023/11/25 12:51:51;;;;;;;3.20;1.00;;;7.10;99.90;;;;;;5029003;28;20029;-50
2023/11/25 12:54:17;;;;;;;6.97;1.40;;;7.10;99.90;;;;;;5029156;28;20033;-53
2023/11/25 12:56:50;;;;;;;4.87;0.90;;;7.10;99.90;;;;;;5028955;28;20032;-53
2023/11/25 12:59:29;;;;;;;5.97;1.00;;;7.10;99.90;;;;;;5028326;28;20038;-51